createdAt,value
2023-05-15T00:02:13.081Z,4.53
2023-05-15T00:04:39.883Z,4.88
2023-05-15T00:07:06.698Z,5.07
2023-05-15T00:09:33.156Z,4.65
2023-05-15T00:12:00.246Z,4.60
2023-05-15T00:14:26.675Z,5.28
2023-05-15T00:16:53.083Z,6.07
2023-05-15T00:19:19.539Z,6.03
2023-05-15T00:21:46.088Z,6.20
2023-05-15T00:24:12.433Z,7.00
2023-05-15T00:26:38.815Z,7.35
2023-05-15T00:29:05.228Z,6.65
2023-05-15T00:31:33.202Z,6.95
2023-05-15T00:34:00.206Z,6.72
2023-05-15T00:36:26.619Z,5.88
2023-05-15T00:38:53.931Z,6.60
2023-05-15T00:41:21.684Z,5.60
2023-05-15T00:43:49.696Z,5.47
2023-05-15T00:46:16.303Z,5.25
2023-05-15T00:48:43.615Z,6.50
2023-05-15T00:51:10.165Z,6.00
2023-05-15T00:53:38.503Z,6.22
2023-05-15T00:56:05.815Z,5.97
2023-05-15T00:58:32.309Z,6.13
2023-05-15T01:00:59.023Z,6.78
2023-05-15T01:03:25.594Z,7.03
2023-05-15T01:05:52.048Z,7.47
2023-05-15T01:08:23.994Z,8.45
2023-05-15T01:10:51.503Z,8.18
2023-05-15T01:13:19.683Z,9.20
2023-05-15T01:15:46.138Z,8.90
2023-05-15T01:18:12.844Z,10.00
2023-05-15T01:20:53.859Z,9.35
2023-05-15T01:23:46.742Z,10.13
2023-05-15T01:26:13.071Z,9.30
2023-05-15T01:28:42.377Z,10.40
2023-05-15T01:31:13.840Z,9.75
2023-05-15T01:33:43.127Z,10.00
2023-05-15T01:36:09.509Z,10.25
2023-05-15T01:38:40.023Z,9.57
2023-05-15T01:41:10.749Z,9.95
2023-05-15T01:43:39.221Z,10.07
2023-05-15T01:46:06.337Z,10.00
2023-05-15T01:48:33.465Z,11.05
2023-05-15T01:51:02.469Z,10.82
2023-05-15T01:53:31.869Z,10.00
2023-05-15T01:55:58.981Z,11.40
2023-05-15T01:58:26.375Z,10.15
2023-05-15T02:00:53.337Z,10.27
2023-05-15T02:03:20.503Z,9.07
2023-05-15T02:05:47.207Z,9.50
2023-05-15T02:08:14.075Z,9.18
2023-05-15T02:10:40.861Z,9.25
2023-05-15T02:13:09.020Z,9.10
2023-05-15T02:15:35.885Z,8.50
2023-05-15T02:18:02.369Z,9.23
2023-05-15T02:20:28.864Z,8.73
2023-05-15T02:22:55.424Z,8.05
2023-05-15T02:25:28.272Z,8.32
2023-05-15T02:28:00.929Z,8.35
2023-05-15T02:30:42.713Z,8.23
2023-05-15T02:33:41.697Z,8.32
2023-05-15T02:36:09.441Z,7.18
2023-05-15T02:38:47.216Z,7.32
2023-05-15T02:41:13.928Z,6.70
2023-05-15T02:43:40.939Z,7.45
2023-05-15T02:46:08.045Z,6.93
2023-05-15T02:48:35.663Z,6.30
2023-05-15T02:51:02.485Z,6.60
2023-05-15T02:53:29.679Z,6.88
2023-05-15T02:55:56.132Z,5.43
2023-05-15T02:58:22.540Z,5.72
2023-05-15T03:00:48.975Z,5.32
2023-05-15T03:03:15.384Z,6.22
2023-05-15T03:05:41.812Z,6.03
2023-05-15T03:08:08.187Z,5.43
2023-05-15T03:10:34.759Z,5.10
2023-05-15T03:13:01.118Z,4.90
2023-05-15T03:15:27.788Z,5.10
2023-05-15T03:17:54.388Z,5.50
2023-05-15T03:20:20.805Z,5.47
2023-05-15T03:22:47.242Z,5.38
2023-05-15T03:25:13.851Z,5.07
2023-05-15T03:27:40.468Z,5.60
2023-05-15T03:30:07.162Z,5.50
2023-05-15T03:32:33.687Z,5.45
2023-05-15T03:35:00.173Z,5.05
2023-05-15T03:37:26.717Z,5.03
2023-05-15T03:39:53.224Z,5.47
2023-05-15T03:42:23.717Z,5.35
2023-05-15T03:44:50.724Z,4.93
2023-05-15T03:47:17.230Z,4.65
2023-05-15T03:49:43.701Z,4.13
2023-05-15T03:52:10.247Z,4.97
2023-05-15T03:54:36.983Z,4.57
2023-05-15T03:57:04.809Z,4.55
2023-05-15T03:59:31.345Z,4.22
2023-05-15T04:04:29.094Z,4.40
2023-05-15T04:06:55.549Z,4.45
2023-05-15T04:09:22.044Z,4.65
2023-05-15T04:11:48.448Z,4.53
2023-05-15T04:14:14.919Z,4.40
2023-05-15T04:16:41.379Z,4.45
2023-05-15T04:19:07.862Z,3.90
2023-05-15T04:21:34.353Z,4.53
2023-05-15T04:24:00.787Z,4.28
2023-05-15T04:26:27.179Z,3.78
2023-05-15T04:29:03.486Z,4.60
2023-05-15T04:31:31.510Z,4.90
2023-05-15T04:33:58.299Z,4.55
2023-05-15T04:36:24.850Z,4.38
2023-05-15T04:38:51.736Z,4.50
2023-05-15T04:41:18.707Z,4.50
2023-05-15T04:43:45.548Z,5.20
2023-05-15T04:46:12.013Z,4.63
2023-05-15T04:48:38.481Z,4.38
2023-05-15T04:51:04.957Z,4.50
2023-05-15T04:53:31.337Z,4.70
2023-05-15T04:55:57.777Z,4.35
2023-05-15T04:58:24.232Z,4.35
2023-05-15T05:00:50.725Z,4.63
2023-05-15T05:03:17.263Z,3.72
2023-05-15T05:05:43.718Z,3.65
2023-05-15T05:08:10.147Z,3.72
2023-05-15T05:10:36.573Z,3.70
2023-05-15T05:13:03.121Z,3.35
2023-05-15T05:15:29.732Z,3.70
2023-05-15T05:17:56.127Z,4.00
2023-05-15T05:20:23.035Z,3.60
2023-05-15T05:22:49.460Z,3.40
2023-05-15T05:25:16.321Z,3.45
2023-05-15T05:27:42.869Z,3.72
2023-05-15T05:30:09.522Z,3.95
2023-05-15T05:32:35.958Z,4.30
2023-05-15T05:35:03.390Z,4.03
2023-05-15T05:37:29.845Z,4.13
2023-05-15T05:39:56.341Z,4.53
2023-05-15T05:42:22.804Z,4.50
2023-05-15T05:44:49.196Z,4.80
2023-05-15T05:47:15.758Z,5.10
2023-05-15T05:49:42.338Z,5.10
2023-05-15T05:52:08.760Z,4.55
2023-05-15T05:54:35.268Z,4.47
2023-05-15T05:57:01.973Z,4.75
2023-05-15T05:59:29.211Z,4.05
2023-05-15T06:01:55.792Z,4.40
2023-05-15T06:04:22.583Z,5.22
2023-05-15T06:06:50.163Z,4.07
2023-05-15T06:09:16.873Z,4.32
2023-05-15T06:11:43.425Z,4.22
2023-05-15T06:14:09.854Z,4.68
2023-05-15T06:16:36.347Z,4.53
2023-05-15T06:19:03.013Z,5.50
2023-05-15T06:21:29.548Z,5.93
2023-05-15T06:23:56.065Z,5.47
2023-05-15T06:26:22.554Z,4.60
2023-05-15T06:28:48.975Z,4.35
2023-05-15T06:31:15.617Z,4.05
2023-05-15T06:33:42.081Z,4.13
2023-05-15T06:36:08.837Z,4.50
2023-05-15T06:38:36.076Z,4.05
2023-05-15T06:41:02.578Z,4.38
2023-05-15T06:43:28.995Z,4.30
2023-05-15T06:45:55.802Z,4.20
2023-05-15T06:48:22.376Z,4.22
2023-05-15T06:50:48.805Z,4.22
2023-05-15T06:53:17.604Z,4.35
2023-05-15T06:55:44.084Z,5.00
2023-05-15T06:58:10.661Z,4.43
2023-05-15T07:00:37.047Z,4.00
2023-05-15T07:03:03.643Z,4.10
2023-05-15T07:05:30.142Z,4.05
2023-05-15T07:07:56.522Z,5.00
2023-05-15T07:10:23.239Z,4.15
2023-05-15T07:12:49.775Z,3.90
2023-05-15T07:15:17.624Z,3.95
2023-05-15T07:17:44.200Z,3.13
2023-05-15T07:20:10.958Z,3.42
2023-05-15T07:22:44.636Z,2.97
2023-05-15T07:25:18.721Z,3.30
2023-05-15T07:27:45.191Z,3.00
2023-05-15T07:30:11.866Z,2.70
2023-05-15T07:32:38.515Z,3.10
2023-05-15T07:35:05.836Z,2.35
2023-05-15T07:37:32.299Z,2.20
2023-05-15T07:39:58.898Z,2.13
2023-05-15T07:42:25.629Z,1.30
2023-05-15T07:44:52.089Z,1.80
2023-05-15T07:47:18.602Z,1.67
2023-05-15T07:49:45.015Z,1.58
2023-05-15T07:52:11.390Z,2.22
2023-05-15T07:54:39.584Z,2.50
2023-05-15T07:57:06.180Z,1.42
2023-05-15T07:59:32.650Z,1.92
2023-05-15T08:01:59.229Z,1.83
2023-05-15T08:04:25.852Z,1.17
2023-05-15T08:06:52.480Z,1.08
2023-05-15T08:09:19.010Z,1.10
2023-05-15T08:11:45.443Z,1.10
2023-05-15T08:14:13.768Z,1.08
2023-05-15T08:16:40.545Z,1.27
2023-05-15T08:19:07.997Z,1.23
2023-05-15T08:21:34.444Z,1.35
2023-05-15T08:24:00.912Z,1.20
2023-05-15T08:26:27.442Z,0.70
2023-05-15T08:28:53.871Z,1.10
2023-05-15T08:31:20.506Z,1.00
2023-05-15T08:33:47.028Z,1.45
2023-05-15T08:36:14.254Z,2.00
2023-05-15T08:38:40.704Z,2.33
2023-05-15T08:41:39.335Z,2.78
2023-05-15T08:44:08.512Z,1.20
2023-05-15T08:46:35.260Z,0.98
2023-05-15T08:49:07.976Z,1.25
2023-05-15T08:51:34.612Z,1.25
2023-05-15T08:54:01.257Z,0.77
2023-05-15T08:56:27.691Z,1.10
2023-05-15T08:58:54.140Z,0.93
2023-05-15T09:01:20.618Z,1.67
2023-05-15T09:03:47.222Z,1.23
2023-05-15T09:06:13.788Z,0.90
2023-05-15T09:08:40.970Z,0.70
2023-05-15T09:11:07.986Z,0.80
2023-05-15T09:13:35.616Z,0.65
2023-05-15T09:16:02.031Z,1.00
2023-05-15T09:18:28.810Z,1.35
2023-05-15T09:20:56.374Z,1.48
2023-05-15T09:23:26.957Z,1.33
2023-05-15T09:25:55.565Z,1.60
2023-05-15T09:28:24.744Z,1.35
2023-05-15T09:30:56.444Z,1.10
2023-05-15T09:33:27.745Z,0.73
2023-05-15T09:35:54.148Z,1.10
2023-05-15T09:38:20.630Z,1.23
2023-05-15T09:40:47.052Z,1.02
2023-05-15T09:43:13.463Z,1.10
2023-05-15T09:45:39.992Z,1.10
2023-05-15T09:48:07.282Z,1.10
2023-05-15T09:50:38.331Z,1.17
2023-05-15T09:53:05.373Z,1.30
2023-05-15T09:55:33.083Z,1.63
2023-05-15T09:58:09.929Z,1.58
2023-05-15T10:00:36.734Z,1.00
2023-05-15T10:03:15.653Z,1.30
2023-05-15T10:05:43.968Z,1.30
2023-05-15T10:08:10.873Z,1.67
2023-05-15T10:10:37.290Z,1.80
2023-05-15T10:13:05.839Z,1.67
2023-05-15T10:15:32.506Z,2.00
2023-05-15T10:17:59.294Z,2.28
2023-05-15T10:20:26.672Z,2.03
2023-05-15T10:22:54.074Z,2.15
2023-05-15T10:25:20.553Z,1.88
2023-05-15T10:27:47.191Z,1.50
2023-05-15T10:30:15.757Z,1.42
2023-05-15T10:32:42.979Z,1.30
2023-05-15T10:35:10.018Z,1.70
2023-05-15T10:37:36.728Z,1.70
2023-05-15T10:40:04.088Z,1.60
2023-05-15T10:42:30.996Z,2.05
2023-05-15T10:45:00.226Z,2.38
2023-05-15T10:47:27.531Z,2.15
2023-05-15T10:49:54.005Z,2.35
2023-05-15T10:52:20.894Z,2.70
2023-05-15T10:54:47.327Z,2.80
2023-05-15T10:57:16.542Z,2.65
2023-05-15T10:59:44.141Z,2.90
2023-05-15T11:02:24.198Z,2.65
2023-05-15T11:04:54.837Z,2.78
2023-05-15T11:07:21.567Z,3.08
2023-05-15T11:09:48.046Z,2.83
2023-05-15T11:12:14.448Z,3.03
2023-05-15T11:14:42.320Z,2.55
2023-05-15T11:17:10.033Z,2.45
2023-05-15T11:19:48.753Z,2.05
2023-05-15T11:22:15.120Z,2.03
2023-05-15T11:24:49.949Z,2.60
2023-05-15T11:27:20.656Z,2.47
2023-05-15T11:30:05.973Z,1.92
2023-05-15T11:32:42.153Z,2.60
2023-05-15T11:37:37.590Z,2.42
2023-05-15T11:40:05.573Z,2.15
2023-05-15T11:42:31.985Z,2.28
2023-05-15T11:44:59.441Z,2.40
2023-05-15T11:47:25.865Z,2.13
2023-05-15T11:49:52.966Z,1.95
2023-05-15T11:52:19.380Z,1.63
2023-05-15T11:54:46.671Z,1.58
2023-05-15T11:57:13.053Z,1.63
2023-05-15T11:59:39.492Z,1.65
2023-05-15T12:02:06.015Z,2.05
2023-05-15T12:04:34.293Z,2.03
2023-05-15T12:07:03.220Z,2.17
2023-05-15T12:09:29.877Z,1.88
2023-05-15T12:11:56.326Z,1.50
2023-05-15T12:14:29.424Z,1.20
2023-05-15T12:17:02.623Z,1.40
2023-05-15T12:19:29.198Z,1.30
2023-05-15T12:21:55.718Z,1.08
2023-05-15T12:24:22.639Z,1.48
2023-05-15T12:26:49.130Z,1.20
2023-05-15T12:29:15.808Z,1.33
2023-05-15T12:31:42.526Z,1.58
2023-05-15T12:34:09.666Z,1.23
2023-05-15T12:36:36.301Z,1.70
2023-05-15T12:39:07.781Z,1.80
2023-05-15T12:41:34.256Z,1.80
2023-05-15T12:44:00.935Z,1.83
2023-05-15T12:46:31.718Z,2.10
2023-05-15T12:48:58.737Z,1.80
2023-05-15T12:51:25.303Z,1.90
2023-05-15T12:53:55.174Z,1.75
2023-05-15T12:56:21.618Z,1.58
2023-05-15T12:58:48.241Z,1.60
2023-05-15T13:01:15.866Z,1.42
2023-05-15T13:03:43.283Z,1.48
2023-05-15T13:06:10.331Z,1.70
2023-05-15T13:08:41.530Z,1.90
2023-05-15T13:11:11.483Z,1.85
2023-05-15T13:13:45.399Z,1.90
2023-05-15T13:16:22.482Z,2.05
2023-05-15T13:18:49.102Z,1.90
2023-05-15T13:21:15.726Z,2.33
2023-05-15T13:23:42.338Z,2.53
2023-05-15T13:26:08.763Z,2.22
2023-05-15T13:28:35.238Z,2.50
2023-05-15T13:31:01.864Z,2.65
2023-05-15T13:33:29.014Z,2.70
2023-05-15T13:35:57.249Z,3.13
2023-05-15T13:38:23.812Z,3.70
2023-05-15T13:40:50.252Z,3.33
2023-05-15T13:43:16.706Z,4.20
2023-05-15T13:45:43.149Z,3.80
2023-05-15T13:48:09.594Z,4.90
2023-05-15T13:50:36.151Z,3.40
2023-05-15T13:53:02.599Z,3.88
2023-05-15T13:55:29.112Z,3.58
2023-05-15T13:57:55.530Z,3.65
2023-05-15T14:00:21.979Z,3.58
2023-05-15T14:02:48.503Z,3.28
2023-05-15T14:05:15.412Z,2.97
2023-05-15T14:07:42.294Z,3.38
2023-05-15T14:10:09.471Z,3.08
2023-05-15T14:12:36.305Z,3.20
2023-05-15T14:15:02.853Z,2.85
2023-05-15T14:17:29.405Z,3.28
2023-05-15T14:19:56.075Z,3.33
2023-05-15T14:22:25.085Z,3.28
2023-05-15T14:24:52.323Z,4.00
2023-05-15T14:27:18.786Z,3.50
2023-05-15T14:29:45.233Z,3.28
2023-05-15T14:32:11.837Z,3.58
2023-05-15T14:34:38.386Z,3.88
2023-05-15T14:37:04.968Z,3.50
2023-05-15T14:39:31.746Z,4.13
2023-05-15T14:41:58.319Z,3.78
2023-05-15T14:44:24.735Z,3.88
2023-05-15T14:47:04.790Z,3.63
2023-05-15T14:49:31.278Z,3.33
2023-05-15T14:51:57.702Z,3.40
2023-05-15T14:54:24.162Z,3.38
2023-05-15T14:56:50.604Z,3.95
2023-05-15T14:59:17.079Z,3.47
2023-05-15T15:01:43.542Z,3.05
2023-05-15T15:04:10.007Z,3.63
2023-05-15T15:06:36.564Z,3.42
2023-05-15T15:09:03.026Z,4.03
2023-05-15T15:11:29.398Z,3.65
2023-05-15T15:13:55.791Z,3.08
2023-05-15T15:16:22.620Z,3.47
2023-05-15T15:18:49.107Z,3.03
2023-05-15T15:21:16.219Z,3.42
2023-05-15T15:23:42.729Z,3.33
2023-05-15T15:26:09.115Z,3.65
2023-05-15T15:28:35.711Z,3.30
2023-05-15T15:31:02.284Z,3.90
2023-05-15T15:33:28.817Z,3.83
2023-05-15T15:35:55.617Z,3.67
2023-05-15T15:38:22.092Z,4.40
2023-05-15T15:40:48.496Z,4.22
2023-05-15T15:43:14.958Z,4.38
2023-05-15T15:45:41.363Z,3.42
2023-05-15T15:48:07.822Z,3.53
2023-05-15T15:50:34.324Z,3.90
2023-05-15T15:53:00.824Z,3.72
2023-05-15T15:55:27.230Z,3.40
2023-05-15T15:57:53.991Z,3.75
2023-05-15T16:00:20.449Z,3.20
2023-05-15T16:02:46.960Z,3.80
2023-05-15T16:05:13.492Z,3.90
2023-05-15T16:07:40.101Z,3.70
2023-05-15T16:10:12.302Z,3.90
2023-05-15T16:12:40.754Z,3.80
2023-05-15T16:15:21.752Z,3.97
2023-05-15T16:17:50.776Z,4.65
2023-05-15T16:20:17.398Z,4.68
2023-05-15T16:22:43.968Z,4.45
2023-05-15T16:25:10.495Z,4.80
2023-05-15T16:27:37.046Z,4.40
2023-05-15T16:30:03.683Z,4.82
2023-05-15T16:32:30.261Z,4.15
2023-05-15T16:34:57.591Z,4.35
2023-05-15T16:37:24.023Z,4.18
2023-05-15T16:39:50.813Z,4.47
2023-05-15T16:42:17.268Z,4.00
2023-05-15T16:44:43.859Z,4.13
2023-05-15T16:47:10.450Z,4.07
2023-05-15T16:49:36.899Z,4.35
2023-05-15T16:52:03.424Z,3.35
2023-05-15T16:54:29.882Z,3.70
2023-05-15T16:56:56.400Z,3.42
2023-05-15T16:59:22.974Z,2.70
2023-05-15T17:01:49.461Z,2.55
2023-05-15T17:04:15.991Z,3.03
2023-05-15T17:06:42.377Z,2.30
2023-05-15T17:09:08.810Z,2.75
2023-05-15T17:11:35.320Z,2.80
2023-05-15T17:14:02.053Z,3.08
2023-05-15T17:16:29.146Z,3.10
2023-05-15T17:18:55.890Z,3.05
2023-05-15T17:21:22.372Z,2.72
2023-05-15T17:23:49.604Z,3.10
2023-05-15T17:26:16.057Z,3.28
2023-05-15T17:28:42.475Z,3.45
2023-05-15T17:31:10.462Z,3.60
2023-05-15T17:33:36.867Z,3.30
2023-05-15T17:36:03.363Z,3.33
2023-05-15T17:38:29.800Z,3.38
2023-05-15T17:40:56.323Z,3.03
2023-05-15T17:43:22.754Z,2.90
2023-05-15T17:45:49.355Z,3.20
2023-05-15T17:48:15.968Z,3.03
2023-05-15T17:50:42.540Z,3.20
2023-05-15T17:53:09.059Z,3.42
2023-05-15T17:55:35.546Z,3.45
2023-05-15T17:58:01.978Z,3.30
2023-05-15T18:00:28.397Z,4.15
2023-05-15T18:02:54.995Z,3.40
2023-05-15T18:05:21.642Z,3.50
2023-05-15T18:07:48.283Z,3.22
2023-05-15T18:10:14.858Z,3.55
2023-05-15T18:12:41.553Z,3.72
2023-05-15T18:15:08.330Z,4.30
2023-05-15T18:17:34.911Z,3.92
2023-05-15T18:20:01.920Z,4.20
2023-05-15T18:22:28.482Z,4.47
2023-05-15T18:24:54.984Z,4.75
2023-05-15T18:27:21.394Z,4.53
2023-05-15T18:29:47.892Z,4.10
2023-05-15T18:32:14.378Z,4.45
2023-05-15T18:34:40.860Z,5.63
2023-05-15T18:37:07.317Z,4.78
2023-05-15T18:39:36.376Z,4.25
2023-05-15T18:42:03.078Z,4.63
2023-05-15T18:44:29.655Z,5.40
2023-05-15T18:46:56.132Z,4.88
2023-05-15T18:49:22.609Z,5.07
2023-05-15T18:51:49.072Z,5.07
2023-05-15T18:54:15.465Z,5.30
2023-05-15T18:56:43.140Z,5.15
2023-05-15T18:59:10.055Z,5.32
2023-05-15T19:01:37.221Z,4.95
2023-05-15T19:04:03.886Z,5.47
2023-05-15T19:06:31.011Z,4.88
2023-05-15T19:08:57.446Z,4.90
2023-05-15T19:11:23.866Z,5.63
2023-05-15T19:13:50.378Z,4.97
2023-05-15T19:16:16.793Z,6.43
2023-05-15T19:18:43.325Z,5.82
2023-05-15T19:21:09.977Z,5.40
2023-05-15T19:23:36.424Z,5.75
2023-05-15T19:26:02.802Z,5.65
2023-05-15T19:28:29.278Z,5.10
2023-05-15T19:30:55.753Z,4.72
2023-05-15T19:33:22.216Z,5.38
2023-05-15T19:35:48.730Z,5.05
2023-05-15T19:38:15.440Z,5.75
2023-05-15T19:40:43.086Z,5.18
2023-05-15T19:43:11.341Z,4.88
2023-05-15T19:45:39.579Z,4.95
2023-05-15T19:48:06.163Z,4.30
2023-05-15T19:50:33.362Z,4.00
2023-05-15T19:52:59.895Z,3.72
2023-05-15T19:55:26.444Z,3.60
2023-05-15T19:57:54.946Z,3.72
2023-05-15T20:00:21.478Z,4.72
2023-05-15T20:02:48.444Z,4.20
2023-05-15T20:05:15.511Z,3.90
2023-05-15T20:07:43.126Z,4.10
2023-05-15T20:10:09.710Z,3.58
2023-05-15T20:12:36.274Z,3.33
2023-05-15T20:15:02.780Z,3.13
2023-05-15T20:17:29.232Z,3.00
2023-05-15T20:19:56.975Z,3.80
2023-05-15T20:22:23.457Z,3.80
2023-05-15T20:24:50.091Z,3.30
2023-05-15T20:27:16.487Z,3.30
2023-05-15T20:29:42.881Z,3.90
2023-05-15T20:32:09.364Z,4.38
2023-05-15T20:34:36.870Z,4.18
2023-05-15T20:37:03.360Z,4.25
2023-05-15T20:39:29.773Z,6.43
2023-05-15T20:41:56.605Z,5.25
2023-05-15T20:44:22.979Z,5.10
2023-05-15T20:46:49.684Z,6.10
2023-05-15T20:49:16.307Z,5.75
2023-05-15T20:51:44.510Z,5.90
2023-05-15T20:54:11.073Z,5.93
2023-05-15T20:56:37.448Z,6.15
2023-05-15T20:59:03.999Z,6.70
2023-05-15T21:01:30.551Z,6.38
2023-05-15T21:03:57.135Z,6.20
2023-05-15T21:06:23.628Z,5.97
2023-05-15T21:08:50.057Z,6.13
2023-05-15T21:11:16.556Z,6.32
2023-05-15T21:13:42.972Z,5.90
2023-05-15T21:16:09.430Z,5.78
2023-05-15T21:18:35.941Z,5.47
2023-05-15T21:21:07.057Z,5.05
2023-05-15T21:23:35.525Z,4.80
2023-05-15T21:26:04.878Z,5.03
2023-05-15T21:28:31.302Z,4.10
2023-05-15T21:30:57.882Z,4.60
2023-05-15T21:33:24.451Z,5.40
2023-05-15T21:35:51.539Z,4.70
2023-05-15T21:38:18.315Z,6.05
2023-05-15T21:40:44.847Z,6.82
2023-05-15T21:43:11.320Z,6.10
2023-05-15T21:45:37.751Z,6.00
2023-05-15T21:48:04.413Z,6.68
2023-05-15T21:50:30.869Z,6.40
2023-05-15T21:52:57.472Z,6.57
2023-05-15T21:55:23.974Z,6.88
2023-05-15T21:57:50.495Z,7.13
2023-05-15T22:00:17.100Z,7.10
2023-05-15T22:02:43.768Z,8.10
2023-05-15T22:05:10.300Z,9.70
2023-05-15T22:07:36.766Z,9.95
2023-05-15T22:10:03.385Z,11.27
2023-05-15T22:12:49.533Z,11.02
2023-05-15T22:15:16.737Z,11.98
2023-05-15T22:17:43.391Z,11.40
2023-05-15T22:20:11.542Z,10.43
2023-05-15T22:22:38.560Z,10.02
2023-05-15T22:25:05.734Z,9.55
2023-05-15T22:27:32.691Z,11.38
2023-05-15T22:29:59.360Z,11.02
2023-05-15T22:32:26.070Z,10.60
2023-05-15T22:34:52.589Z,11.27
2023-05-15T22:37:19.130Z,12.32
2023-05-15T22:39:45.847Z,11.45
2023-05-15T22:42:12.328Z,11.05
2023-05-15T22:44:38.843Z,11.52
2023-05-15T22:47:05.628Z,11.70
2023-05-15T22:49:32.111Z,11.05
2023-05-15T22:51:58.719Z,11.20
2023-05-15T22:55:02.892Z,11.10
2023-05-15T22:57:29.479Z,10.60
2023-05-15T22:59:55.933Z,10.38
2023-05-15T23:02:22.439Z,11.05
2023-05-15T23:04:48.908Z,10.48
2023-05-15T23:07:17.964Z,10.57
2023-05-15T23:09:44.498Z,10.30
2023-05-15T23:12:10.958Z,10.48
2023-05-15T23:14:37.421Z,10.23
2023-05-15T23:17:03.994Z,9.25
2023-05-15T23:19:30.462Z,9.15
2023-05-15T23:21:56.981Z,9.20
2023-05-15T23:24:23.412Z,8.57
2023-05-15T23:26:49.993Z,7.75
2023-05-15T23:29:16.635Z,8.43
2023-05-15T23:31:43.325Z,7.80
2023-05-15T23:34:09.903Z,8.02
2023-05-15T23:36:36.350Z,8.00
2023-05-15T23:39:02.982Z,7.90
2023-05-15T23:41:29.470Z,7.65
2023-05-15T23:43:55.970Z,8.25
2023-05-15T23:46:22.457Z,8.38
2023-05-15T23:48:49.048Z,8.15
2023-05-15T23:51:15.808Z,8.43
2023-05-15T23:53:42.573Z,8.15
2023-05-15T23:56:09.101Z,8.23
2023-05-15T23:58:35.549Z,8.30
